createdAt,value
2022-12-04T00:01:29.614Z,16.67
2022-12-04T00:03:59.715Z,13.60
2022-12-04T00:06:28.089Z,16.33
2022-12-04T00:08:58.023Z,18.57
2022-12-04T00:11:27.954Z,16.97
2022-12-04T00:13:59.136Z,13.03
2022-12-04T00:16:31.644Z,16.80
2022-12-04T00:18:59.920Z,16.67
2022-12-04T00:21:28.217Z,15.57
2022-12-04T00:23:57.682Z,17.40
2022-12-04T00:26:27.695Z,17.40
2022-12-04T00:28:56.006Z,15.90
2022-12-04T00:31:26.205Z,15.07
2022-12-04T00:33:54.863Z,17.67
2022-12-04T00:36:24.991Z,14.17
2022-12-04T00:38:53.769Z,14.93
2022-12-04T00:41:26.103Z,13.43
2022-12-04T00:43:54.338Z,14.13
2022-12-04T00:46:23.360Z,16.47
2022-12-04T00:48:51.671Z,13.87
2022-12-04T00:51:22.638Z,15.10
2022-12-04T00:53:51.319Z,10.90
2022-12-04T00:56:22.937Z,14.50
2022-12-04T00:58:54.431Z,15.03
2022-12-04T01:01:23.705Z,13.83
2022-12-04T01:03:52.226Z,15.17
2022-12-04T01:06:22.535Z,14.50
2022-12-04T01:08:51.321Z,11.27
2022-12-04T01:11:19.895Z,15.10
2022-12-04T01:13:49.284Z,16.10
2022-12-04T01:16:19.375Z,11.73
2022-12-04T01:18:47.847Z,12.17
2022-12-04T01:21:15.925Z,15.27
2022-12-04T01:23:44.316Z,14.17
2022-12-04T01:26:13.144Z,13.93
2022-12-04T01:28:41.869Z,12.10
2022-12-04T01:31:13.791Z,14.93
2022-12-04T01:33:43.060Z,14.93
2022-12-04T01:36:14.278Z,17.23
2022-12-04T01:38:43.144Z,14.70
2022-12-04T01:41:12.977Z,14.50
2022-12-04T01:43:42.501Z,12.90
2022-12-04T01:46:12.932Z,13.67
2022-12-04T01:48:45.676Z,12.17
2022-12-04T01:51:18.704Z,15.37
2022-12-04T01:53:50.744Z,14.20
2022-12-04T01:56:20.722Z,13.33
2022-12-04T01:58:52.357Z,11.50
2022-12-04T02:01:22.169Z,15.20
2022-12-04T02:03:50.683Z,11.30
2022-12-04T02:06:18.707Z,15.40
2022-12-04T02:08:46.791Z,13.90
2022-12-04T02:11:27.815Z,15.63
2022-12-04T02:14:07.837Z,15.80
2022-12-04T02:16:46.512Z,15.30
2022-12-04T02:19:40.236Z,12.70
2022-12-04T02:22:15.921Z,14.27
2022-12-04T02:24:53.316Z,14.47
2022-12-04T02:27:36.295Z,13.83
2022-12-04T02:30:08.477Z,13.50
2022-12-04T02:32:42.194Z,14.07
2022-12-04T02:35:16.056Z,15.53
2022-12-04T02:37:47.616Z,12.07
2022-12-04T02:40:25.316Z,12.80
2022-12-04T02:42:59.419Z,12.87
2022-12-04T02:45:34.658Z,8.50
2022-12-04T02:48:05.859Z,13.30
2022-12-04T02:50:38.688Z,13.00
2022-12-04T02:53:11.364Z,11.10
2022-12-04T02:55:43.456Z,12.93
2022-12-04T02:58:15.807Z,11.60
2022-12-04T03:00:49.345Z,12.83
2022-12-04T03:03:22.140Z,14.00
2022-12-04T03:05:57.388Z,13.73
2022-12-04T03:08:30.548Z,14.37
2022-12-04T03:11:01.929Z,12.03
2022-12-04T03:13:34.881Z,12.93
2022-12-04T03:16:09.091Z,11.53
2022-12-04T03:18:43.481Z,6.93
2022-12-04T03:21:14.941Z,14.63
2022-12-04T03:23:48.869Z,13.53
2022-12-04T03:26:22.496Z,13.10
2022-12-04T03:28:57.940Z,13.67
2022-12-04T03:31:34.991Z,14.07
2022-12-04T03:34:05.135Z,11.63
2022-12-04T03:36:37.383Z,12.77
2022-12-04T03:39:14.009Z,14.70
2022-12-04T03:41:52.926Z,15.17
2022-12-04T03:44:25.390Z,13.23
2022-12-04T03:46:59.191Z,12.30
2022-12-04T03:49:32.656Z,11.60
2022-12-04T03:52:03.707Z,11.00
2022-12-04T03:54:34.724Z,11.83
2022-12-04T03:57:08.120Z,13.67
2022-12-04T03:59:40.401Z,11.63
2022-12-04T04:02:17.197Z,11.90
2022-12-04T04:04:49.440Z,10.53
2022-12-04T04:07:24.499Z,12.63
2022-12-04T04:09:59.305Z,13.97
2022-12-04T04:12:32.138Z,11.53
2022-12-04T04:15:21.827Z,11.20
2022-12-04T04:18:10.754Z,10.50
2022-12-04T04:20:59.825Z,11.57
2022-12-04T04:23:48.369Z,12.77
2022-12-04T04:26:17.707Z,12.60
2022-12-04T04:28:45.879Z,11.30
2022-12-04T04:31:21.400Z,13.30
2022-12-04T04:34:00.651Z,11.60
2022-12-04T04:36:36.951Z,12.10
2022-12-04T04:39:11.201Z,10.87
2022-12-04T04:41:45.640Z,11.87
2022-12-04T04:44:20.890Z,8.70
2022-12-04T04:46:53.647Z,13.00
2022-12-04T04:49:27.293Z,12.53
2022-12-04T04:51:56.151Z,10.20
2022-12-04T04:54:24.835Z,11.13
2022-12-04T04:56:52.910Z,10.03
2022-12-04T04:59:21.178Z,12.63
2022-12-04T05:01:49.417Z,13.50
2022-12-04T05:04:17.429Z,11.13
2022-12-04T05:06:48.919Z,12.10
2022-12-04T05:09:17.057Z,12.27
2022-12-04T05:11:45.024Z,12.20
2022-12-04T05:14:12.974Z,12.07
2022-12-04T05:16:41.784Z,10.30
2022-12-04T05:19:27.452Z,12.97
2022-12-04T05:21:57.537Z,8.93
2022-12-04T05:24:25.639Z,11.00
2022-12-04T05:26:53.810Z,9.43
2022-12-04T05:29:22.022Z,12.70
2022-12-04T05:31:50.376Z,12.70
2022-12-04T05:34:18.401Z,8.40
2022-12-04T05:36:46.360Z,10.10
2022-12-04T05:39:15.780Z,11.07
2022-12-04T05:41:43.721Z,12.00
2022-12-04T05:44:11.957Z,12.00
2022-12-04T05:46:40.057Z,14.27
2022-12-04T05:49:08.258Z,13.60
2022-12-04T05:51:36.198Z,13.97
2022-12-04T05:54:04.320Z,12.40
2022-12-04T05:56:34.012Z,10.60
2022-12-04T05:59:02.052Z,11.27
2022-12-04T06:01:30.149Z,12.97
2022-12-04T06:03:58.249Z,11.97
2022-12-04T06:06:27.544Z,9.87
2022-12-04T06:08:57.556Z,13.07
2022-12-04T06:11:27.424Z,11.20
2022-12-04T06:13:57.726Z,13.30
2022-12-04T06:16:28.355Z,11.60
2022-12-04T06:18:58.655Z,10.70
2022-12-04T06:21:30.192Z,14.00
2022-12-04T06:23:58.303Z,10.13
2022-12-04T06:26:27.023Z,12.53
2022-12-04T06:28:57.598Z,11.83
2022-12-04T06:31:26.723Z,12.50
2022-12-04T06:33:55.581Z,10.70
2022-12-04T06:36:24.578Z,8.77
2022-12-04T06:38:53.574Z,8.23
2022-12-04T06:41:22.873Z,11.37
2022-12-04T06:43:51.928Z,10.73
2022-12-04T06:46:23.061Z,14.20
2022-12-04T06:48:51.776Z,10.43
2022-12-04T06:51:21.632Z,11.10
2022-12-04T06:53:50.552Z,11.20
2022-12-04T06:56:21.485Z,11.03
2022-12-04T06:58:51.120Z,13.73
2022-12-04T07:01:22.982Z,11.50
2022-12-04T07:03:52.033Z,10.00
2022-12-04T07:06:22.031Z,7.93
2022-12-04T07:08:52.793Z,9.80
2022-12-04T07:11:22.859Z,9.50
2022-12-04T07:13:51.668Z,11.20
2022-12-04T07:16:23.132Z,8.73
2022-12-04T07:18:53.904Z,12.43
2022-12-04T07:21:23.657Z,10.37
2022-12-04T07:23:52.414Z,11.10
2022-12-04T07:26:42.469Z,12.77
2022-12-04T07:29:10.938Z,10.20
2022-12-04T07:31:40.646Z,11.53
2022-12-04T07:34:09.167Z,9.40
2022-12-04T07:36:37.411Z,13.20
2022-12-04T07:39:05.620Z,12.03
2022-12-04T07:42:23.867Z,9.53
2022-12-04T07:45:08.645Z,10.57
2022-12-04T07:47:38.371Z,9.43
2022-12-04T07:50:08.331Z,11.60
2022-12-04T07:52:37.472Z,7.77
2022-12-04T07:55:06.756Z,8.40
2022-12-04T07:58:06.235Z,10.83
2022-12-04T08:00:34.618Z,7.60
2022-12-04T08:03:04.367Z,9.47
2022-12-04T08:05:33.484Z,12.33
2022-12-04T08:08:01.934Z,9.33
2022-12-04T08:10:30.194Z,11.23
2022-12-04T08:12:58.415Z,11.07
2022-12-04T08:15:33.211Z,16.53
2022-12-04T08:18:01.782Z,10.87
2022-12-04T08:20:32.012Z,10.83
2022-12-04T08:23:00.224Z,11.10
2022-12-04T08:25:28.750Z,11.23
2022-12-04T08:27:56.880Z,10.63
2022-12-04T08:34:03.246Z,12.03
2022-12-04T08:36:33.806Z,8.70
2022-12-04T08:39:29.548Z,8.77
2022-12-04T08:41:57.965Z,10.13
2022-12-04T08:44:27.034Z,9.87
2022-12-04T08:46:55.481Z,8.60
2022-12-04T08:49:26.322Z,12.53
2022-12-04T08:51:55.909Z,8.50
2022-12-04T08:54:23.944Z,10.20
2022-12-04T08:56:51.965Z,10.87
2022-12-04T08:59:20.041Z,11.47
2022-12-04T09:01:54.141Z,10.97
2022-12-04T09:04:22.254Z,9.87
2022-12-04T09:06:50.456Z,8.30
2022-12-04T09:09:19.798Z,9.80
2022-12-04T09:11:48.050Z,10.93
2022-12-04T09:14:16.022Z,8.80
2022-12-04T09:16:44.262Z,9.70
2022-12-04T09:19:12.368Z,9.13
2022-12-04T09:21:40.438Z,14.80
2022-12-04T09:24:08.614Z,10.80
2022-12-04T09:26:38.017Z,8.80
2022-12-04T09:29:06.775Z,12.73
2022-12-04T09:31:35.623Z,9.77
2022-12-04T09:34:04.406Z,10.03
2022-12-04T09:36:32.409Z,11.47
2022-12-04T09:39:00.787Z,10.97
2022-12-04T09:41:51.678Z,11.10
2022-12-04T09:44:23.841Z,10.83
2022-12-04T09:46:56.392Z,11.40
2022-12-04T09:49:30.535Z,14.40
2022-12-04T09:52:03.460Z,12.63
2022-12-04T09:54:35.202Z,15.80
2022-12-04T09:57:11.905Z,17.30
2022-12-04T09:59:39.882Z,12.73
2022-12-04T10:02:27.998Z,12.40
2022-12-04T10:04:57.133Z,8.20
2022-12-04T10:07:33.414Z,9.20
2022-12-04T10:10:16.072Z,9.50
2022-12-04T10:12:54.954Z,10.23
2022-12-04T10:15:39.815Z,10.60
2022-12-04T10:18:19.803Z,9.40
2022-12-04T10:21:27.886Z,10.20
2022-12-04T10:24:08.430Z,13.23
2022-12-04T10:26:42.480Z,9.03
2022-12-04T10:29:19.304Z,9.63
2022-12-04T10:31:49.131Z,9.00
2022-12-04T10:34:21.124Z,9.77
2022-12-04T10:36:56.755Z,9.67
2022-12-04T10:39:45.673Z,9.50
2022-12-04T10:42:25.599Z,12.27
2022-12-04T10:44:55.888Z,12.10
2022-12-04T10:47:25.063Z,9.00
2022-12-04T10:50:00.895Z,10.50
2022-12-04T10:52:32.135Z,10.90
2022-12-04T10:55:05.283Z,9.83
2022-12-04T10:57:38.758Z,9.77
2022-12-04T11:00:29.918Z,11.07
2022-12-04T11:03:03.997Z,8.20
2022-12-04T11:05:34.794Z,7.87
2022-12-04T11:08:06.057Z,9.50
2022-12-04T11:10:37.020Z,8.47
2022-12-04T11:13:07.088Z,8.73
2022-12-04T11:15:44.872Z,7.93
2022-12-04T11:18:20.071Z,12.00
2022-12-04T11:20:54.934Z,8.53
2022-12-04T11:23:23.601Z,9.47
2022-12-04T11:26:05.916Z,10.20
2022-12-04T11:28:43.312Z,8.77
2022-12-04T11:31:19.825Z,7.50
2022-12-04T11:33:50.060Z,7.67
2022-12-04T11:36:23.523Z,9.50
2022-12-04T11:38:53.181Z,6.90
2022-12-04T11:41:30.172Z,8.40
2022-12-04T11:44:23.976Z,11.93
2022-12-04T11:46:56.794Z,10.63
2022-12-04T11:49:26.282Z,10.07
2022-12-04T11:52:07.503Z,10.37
2022-12-04T11:54:43.156Z,9.70
2022-12-04T11:57:19.189Z,10.50
2022-12-04T12:00:13.605Z,7.63
2022-12-04T12:03:02.173Z,9.10
2022-12-04T12:06:09.998Z,8.50
2022-12-04T12:08:51.740Z,7.40
2022-12-04T12:11:31.696Z,11.00
2022-12-04T12:14:09.517Z,8.53
2022-12-04T12:17:03.904Z,9.33
2022-12-04T12:19:52.044Z,10.60
2022-12-04T12:22:38.033Z,8.97
2022-12-04T12:25:43.410Z,9.00
2022-12-04T12:28:24.227Z,11.83
2022-12-04T12:31:08.962Z,9.93
2022-12-04T12:33:41.535Z,10.57
2022-12-04T12:36:13.763Z,8.77
2022-12-04T12:38:48.462Z,10.30
2022-12-04T12:41:20.260Z,10.80
2022-12-04T12:43:54.712Z,9.33
2022-12-04T12:48:59.528Z,8.67
2022-12-04T12:51:37.726Z,9.07
2022-12-04T12:54:17.048Z,11.20
2022-12-04T12:56:53.651Z,9.93
2022-12-04T12:59:25.187Z,9.57
2022-12-04T13:02:01.043Z,10.40
2022-12-04T13:04:35.136Z,8.00
2022-12-04T13:07:15.736Z,10.47
2022-12-04T13:09:50.037Z,10.73
2022-12-04T13:12:20.567Z,10.23
2022-12-04T13:14:49.316Z,11.93
2022-12-04T13:17:21.566Z,8.70
2022-12-04T13:19:53.941Z,13.33
2022-12-04T13:22:31.737Z,15.10
2022-12-04T13:25:27.939Z,16.50
2022-12-04T13:28:07.967Z,8.93
2022-12-04T13:30:46.301Z,13.37
2022-12-04T13:33:42.525Z,12.67
2022-12-04T13:36:27.901Z,10.70
2022-12-04T13:39:29.681Z,7.63
2022-12-04T13:42:01.008Z,13.60
2022-12-04T13:44:30.885Z,11.80
2022-12-04T13:47:01.397Z,13.40
2022-12-04T13:49:31.030Z,10.13
2022-12-04T13:52:02.220Z,10.07
2022-12-04T13:54:35.218Z,12.43
2022-12-04T13:57:22.065Z,13.00
2022-12-04T13:59:51.000Z,10.97
2022-12-04T14:02:25.365Z,11.40
2022-12-04T14:04:56.919Z,12.20
2022-12-04T14:07:29.116Z,12.40
2022-12-04T14:10:01.873Z,14.07
2022-12-04T14:12:34.639Z,13.07
2022-12-04T14:15:05.499Z,12.20
2022-12-04T14:17:35.630Z,7.80
2022-12-04T14:20:07.970Z,13.80
2022-12-04T14:22:44.627Z,11.97
2022-12-04T14:25:35.458Z,12.53
2022-12-04T14:28:25.943Z,7.87
2022-12-04T14:31:11.121Z,11.13
2022-12-04T14:33:43.773Z,16.03
2022-12-04T14:36:19.148Z,14.13
2022-12-04T14:38:49.672Z,13.20
2022-12-04T14:41:27.290Z,11.43
2022-12-04T14:43:56.551Z,13.43
2022-12-04T14:46:32.608Z,12.17
2022-12-04T14:49:13.754Z,8.43
2022-12-04T14:51:47.150Z,14.30
2022-12-04T14:54:22.181Z,12.93
2022-12-04T14:57:12.053Z,12.60
2022-12-04T14:59:45.097Z,10.77
2022-12-04T15:02:15.464Z,14.27
2022-12-04T15:04:46.389Z,12.20
2022-12-04T15:07:22.448Z,9.07
2022-12-04T15:10:11.879Z,14.03
2022-12-04T15:12:48.424Z,12.80
2022-12-04T15:15:22.094Z,13.40
2022-12-04T15:18:05.172Z,13.47
2022-12-04T15:20:39.458Z,13.30
2022-12-04T15:23:07.769Z,18.20
2022-12-04T15:25:41.983Z,15.23
2022-12-04T15:28:17.809Z,12.90
2022-12-04T15:30:47.604Z,11.53
2022-12-04T15:33:21.437Z,13.70
2022-12-04T15:35:54.678Z,14.00
2022-12-04T15:38:23.060Z,12.33
2022-12-04T15:40:53.176Z,15.37
2022-12-04T15:43:29.124Z,9.33
2022-12-04T15:45:57.772Z,12.57
2022-12-04T15:48:27.266Z,12.40
2022-12-04T15:51:03.739Z,14.07
2022-12-04T15:53:34.102Z,14.03
2022-12-04T15:56:05.664Z,19.80
2022-12-04T15:58:37.578Z,19.50
2022-12-04T16:01:07.965Z,15.30
2022-12-04T16:03:40.924Z,16.17
2022-12-04T16:06:17.616Z,14.23
2022-12-04T16:08:48.122Z,13.90
2022-12-04T16:11:33.883Z,13.67
2022-12-04T16:14:19.082Z,16.20
2022-12-04T16:16:49.610Z,17.07
2022-12-04T16:19:25.208Z,15.17
2022-12-04T16:21:56.452Z,12.77
2022-12-04T16:24:25.081Z,16.37
2022-12-04T16:26:55.211Z,16.07
2022-12-04T16:29:25.182Z,16.63
2022-12-04T16:32:02.706Z,17.33
2022-12-04T16:34:31.600Z,14.60
2022-12-04T16:37:00.303Z,16.53
2022-12-04T16:39:28.364Z,16.83
2022-12-04T16:41:56.403Z,15.57
2022-12-04T16:44:25.738Z,17.57
2022-12-04T16:46:56.641Z,15.20
2022-12-04T16:49:24.824Z,15.53
2022-12-04T16:51:52.888Z,16.93
2022-12-04T16:54:20.968Z,13.63
2022-12-04T16:56:48.928Z,15.03
2022-12-04T16:59:17.019Z,9.87
2022-12-04T17:01:48.234Z,15.97
2022-12-04T17:04:18.539Z,15.23
2022-12-04T17:06:47.256Z,14.83
2022-12-04T17:09:16.394Z,16.10
2022-12-04T17:11:44.577Z,14.50
2022-12-04T17:14:12.827Z,16.73
2022-12-04T17:16:46.811Z,13.47
2022-12-04T17:19:16.754Z,17.77
2022-12-04T17:21:46.246Z,17.03
2022-12-04T17:24:14.272Z,14.53
2022-12-04T17:26:42.293Z,13.00
2022-12-04T17:29:23.950Z,15.87
2022-12-04T17:31:52.023Z,15.20
2022-12-04T17:34:21.804Z,17.30
2022-12-04T17:36:50.083Z,14.67
2022-12-04T17:39:18.033Z,15.47
2022-12-04T17:41:46.232Z,19.43
2022-12-04T17:44:14.185Z,16.60
2022-12-04T17:46:44.774Z,15.33
2022-12-04T17:49:13.137Z,14.60
2022-12-04T17:51:42.706Z,16.70
2022-12-04T17:54:12.503Z,17.97
2022-12-04T17:56:46.109Z,17.60
2022-12-04T17:59:16.363Z,19.97
2022-12-04T18:01:44.700Z,19.30
2022-12-04T18:04:12.979Z,15.80
2022-12-04T18:06:43.589Z,17.97
2022-12-04T18:09:13.867Z,15.20
2022-12-04T18:11:43.701Z,18.93
2022-12-04T18:14:13.691Z,16.70
2022-12-04T18:16:47.001Z,17.97
2022-12-04T18:19:16.034Z,19.83
2022-12-04T18:21:45.357Z,20.30
2022-12-04T18:24:14.022Z,22.30
2022-12-04T18:26:48.140Z,20.60
2022-12-04T18:29:17.682Z,17.57
2022-12-04T18:31:46.303Z,20.83
2022-12-04T18:34:14.735Z,21.47
2022-12-04T18:36:51.524Z,22.50
2022-12-04T18:39:22.828Z,20.13
2022-12-04T18:41:52.305Z,20.47
2022-12-04T18:44:23.220Z,17.50
2022-12-04T18:46:51.659Z,20.53
2022-12-04T18:49:19.775Z,19.60
2022-12-04T18:51:50.297Z,20.43
2022-12-04T18:54:25.039Z,22.03
2022-12-04T18:56:55.765Z,22.07
2022-12-04T18:59:25.409Z,19.40
2022-12-04T19:01:55.530Z,21.20
2022-12-04T19:04:25.359Z,21.27
2022-12-04T19:06:55.887Z,21.73
2022-12-04T19:10:02.028Z,23.97
2022-12-04T19:12:15.263Z,21.93
2022-12-04T19:14:43.170Z,25.13
2022-12-04T19:17:11.725Z,21.10
2022-12-04T19:19:40.045Z,22.73
2022-12-04T19:22:08.167Z,23.87
2022-12-04T19:24:37.656Z,21.10
2022-12-04T19:27:11.216Z,22.53
2022-12-04T19:29:41.275Z,24.53
2022-12-04T19:32:10.669Z,22.53
2022-12-04T19:34:38.711Z,23.27
2022-12-04T19:37:06.900Z,20.50
2022-12-04T19:39:37.979Z,23.00
2022-12-04T19:42:07.622Z,29.63
2022-12-04T19:44:51.210Z,24.07
2022-12-04T19:47:21.464Z,22.23
2022-12-04T19:49:49.594Z,20.50
2022-12-04T19:52:17.931Z,24.57
2022-12-04T19:54:46.039Z,26.33
2022-12-04T19:57:15.749Z,24.60
2022-12-04T19:59:57.489Z,24.37
2022-12-04T20:02:25.698Z,26.40
2022-12-04T20:04:53.891Z,25.17
2022-12-04T20:07:21.819Z,24.77
2022-12-04T20:09:52.424Z,22.67
2022-12-04T20:12:22.171Z,30.80
2022-12-04T20:14:50.309Z,22.60
2022-12-04T20:17:18.350Z,19.10
2022-12-04T20:19:46.356Z,26.40
2022-12-04T20:22:14.423Z,24.97
2022-12-04T20:24:43.023Z,23.57
2022-12-04T20:27:10.991Z,23.57
2022-12-04T20:29:40.612Z,29.70
2022-12-04T20:32:08.639Z,25.00
2022-12-04T20:34:43.048Z,24.67
2022-12-04T20:37:12.068Z,22.77
2022-12-04T20:39:40.364Z,25.80
2022-12-04T20:42:08.415Z,25.30
2022-12-04T20:44:36.497Z,24.90
2022-12-04T20:47:06.035Z,27.53
2022-12-04T20:49:34.216Z,23.93
2022-12-04T20:52:02.246Z,27.60
2022-12-04T20:54:30.267Z,26.40
2022-12-04T20:56:58.207Z,28.93
2022-12-04T20:59:26.365Z,29.37
2022-12-04T21:01:55.011Z,31.50
2022-12-04T21:04:25.020Z,25.53
2022-12-04T21:06:53.141Z,26.57
2022-12-04T21:09:23.322Z,27.80
2022-12-04T21:11:53.179Z,24.20
2022-12-04T21:14:41.327Z,23.53
2022-12-04T21:17:12.991Z,26.90
2022-12-04T21:19:42.523Z,31.93
2022-12-04T21:22:11.362Z,26.43
2022-12-04T21:24:42.898Z,25.50
2022-12-04T21:27:17.158Z,25.07
2022-12-04T21:29:47.555Z,30.23
2022-12-04T21:32:17.667Z,28.07
2022-12-04T21:34:50.064Z,27.40
2022-12-04T21:37:18.055Z,26.27
2022-12-04T21:39:46.332Z,26.03
2022-12-04T21:42:33.192Z,24.67
2022-12-04T21:45:02.498Z,30.07
2022-12-04T21:47:31.274Z,23.03
2022-12-04T21:50:01.055Z,32.30
2022-12-04T21:52:29.343Z,24.60
2022-12-04T21:54:58.549Z,23.97
2022-12-04T21:57:26.561Z,26.13
2022-12-04T21:59:55.177Z,27.07
2022-12-04T22:02:23.722Z,30.30
2022-12-04T22:04:52.463Z,27.80
2022-12-04T22:07:21.764Z,26.70
2022-12-04T22:09:49.881Z,29.13
2022-12-04T22:12:47.877Z,30.83
2022-12-04T22:15:06.391Z,24.63
2022-12-04T22:17:34.799Z,29.30
2022-12-04T22:20:06.418Z,30.10
2022-12-04T22:22:36.815Z,25.67
2022-12-04T22:25:05.051Z,27.00
2022-12-04T22:27:33.003Z,28.50
2022-12-04T22:30:01.530Z,24.27
2022-12-04T22:32:29.614Z,26.03
2022-12-04T22:34:57.541Z,25.63
2022-12-04T22:37:25.533Z,27.47
2022-12-04T22:39:55.211Z,27.23
2022-12-04T22:42:23.518Z,28.50
2022-12-04T22:44:51.994Z,24.60
2022-12-04T22:47:20.039Z,25.00
2022-12-04T22:49:48.210Z,25.73
2022-12-04T22:52:16.270Z,23.10
2022-12-04T22:54:44.621Z,26.13
2022-12-04T22:57:13.958Z,26.37
2022-12-04T22:59:41.961Z,26.53
2022-12-04T23:02:09.945Z,25.90
2022-12-04T23:04:37.878Z,24.40
2022-12-04T23:07:06.046Z,21.57
2022-12-04T23:09:34.002Z,25.93
2022-12-04T23:12:02.264Z,24.00
2022-12-04T23:14:32.606Z,24.37
2022-12-04T23:17:00.777Z,23.50
2022-12-04T23:19:31.218Z,24.90
2022-12-04T23:21:59.255Z,24.33
2022-12-04T23:24:27.359Z,19.70
2022-12-04T23:26:55.426Z,23.10
2022-12-04T23:29:51.567Z,23.90
2022-12-04T23:32:12.630Z,21.23
2022-12-04T23:34:40.868Z,26.10
2022-12-04T23:37:08.821Z,22.37
2022-12-04T23:39:36.773Z,27.10
2022-12-04T23:42:04.859Z,24.50
2022-12-04T23:44:32.971Z,21.83
2022-12-04T23:47:01.016Z,25.90
2022-12-04T23:49:30.503Z,28.63
2022-12-04T23:51:58.519Z,24.97
2022-12-04T23:54:27.311Z,23.40
2022-12-04T23:56:55.893Z,18.73
2022-12-04T23:59:23.802Z,26.47
